Time;durP1;ratioP1;P1;durP2;ratioP2;P2;SDS_P1;SDS_P2;PMS_P1;PMS_P2;Temp;Humidity;BMP_temperature;BMP_pressure;BME280_temperature;BME280_humidity;BME280_pressure;Samples;Min_cycle;Max_cycle;Signal;HPM_P1;HPM_P2
2020/12/23 00:01:46;;;;;;;86.42;40.05;;;;;;;-3.65;65.85;102183.83;1692171;82;21101;-81
2020/12/23 00:04:16;;;;;;;114.45;47.98;;;;;;;-3.64;65.81;102181.73;1697399;82;21028;-79
2020/12/23 00:06:45;;;;;;;104.60;48.42;;;;;;;-3.66;65.91;102175.70;1687682;83;21078;-81
2020/12/23 00:09:13;;;;;;;110.45;45.65;;;;;;;-3.60;65.87;102179.67;1667456;83;20946;-80
2020/12/23 00:11:41;;;;;;;98.97;40.52;;;;;;;-3.58;65.71;102173.78;1679417;83;21519;-80
2020/12/23 00:14:10;;;;;;;91.57;40.60;;;;;;;-3.55;65.63;102175.54;1695135;83;20944;-80
2020/12/23 00:16:41;;;;;;;95.15;38.98;;;;;;;-3.59;65.64;102169.88;1667539;83;21059;-81
2020/12/23 00:19:09;;;;;;;80.25;36.05;;;;;;;-3.60;65.66;102166.85;1678929;82;21113;-80
2020/12/23 00:21:37;;;;;;;80.05;31.70;;;;;;;-3.57;65.84;102170.37;1672724;84;21786;-81
2020/12/23 00:24:05;;;;;;;70.40;30.32;;;;;;;-3.53;65.64;102166.19;1679986;83;21240;-79
2020/12/23 00:26:34;;;;;;;62.50;30.37;;;;;;;-3.52;65.66;102163.20;1666053;83;21118;-80
2020/12/23 00:29:02;;;;;;;65.67;31.10;;;;;;;-3.55;65.69;102162.30;1670454;83;20951;-81
2020/12/23 00:31:31;;;;;;;66.67;32.45;;;;;;;-3.55;65.66;102156.31;1686600;83;21097;-81
2020/12/23 00:34:00;;;;;;;69.53;33.42;;;;;;;-3.61;65.79;102158.30;1679426;83;21090;-81
2020/12/23 00:36:28;;;;;;;55.85;26.82;;;;;;;-3.62;65.93;102155.30;1673041;84;21910;-80
2020/12/23 00:38:56;;;;;;;59.93;28.90;;;;;;;-3.63;66.00;102152.69;1682491;83;21587;-80
2020/12/23 00:41:23;;;;;;;63.90;28.75;;;;;;;-3.66;66.22;102150.93;1683636;82;21407;-80
2020/12/23 00:43:52;;;;;;;76.30;33.92;;;;;;;-3.63;66.28;102148.42;1674458;82;21539;-80
2020/12/23 00:46:19;;;;;;;68.67;31.30;;;;;;;-3.69;66.35;102144.46;1698221;82;21481;-80
2020/12/23 00:48:47;;;;;;;62.43;29.15;;;;;;;-3.71;66.47;102148.69;1692760;82;21975;-80
2020/12/23 00:51:16;;;;;;;59.20;26.52;;;;;;;-3.70;66.66;102148.27;1689198;81;21184;-79
2020/12/23 00:53:44;;;;;;;66.90;27.77;;;;;;;-3.69;66.61;102141.91;1649468;83;21110;-79
2020/12/23 00:56:12;;;;;;;59.42;28.52;;;;;;;-3.71;66.70;102146.13;1671183;82;21617;-78
2020/12/23 00:58:40;;;;;;;56.83;25.48;;;;;;;-3.74;66.76;102135.78;1671461;84;21097;-78
2020/12/23 01:01:08;;;;;;;57.50;28.67;;;;;;;-3.75;66.91;102137.91;1637049;85;21152;-77
2020/12/23 01:03:38;;;;;;;61.33;28.67;;;;;;;-3.76;66.95;102142.17;1675016;82;21078;-79
2020/12/23 01:06:10;;;;;;;61.45;27.05;;;;;;;-3.71;66.96;102128.57;1671092;83;21038;-79
2020/12/23 01:53:57;;;;;;;39.88;19.30;;;;;;;-3.69;67.17;102080.77;1649862;85;21475;-80
2020/12/23 01:56:25;;;;;;;39.08;20.62;;;;;;;-3.67;67.22;102079.11;1660864;84;21050;-79
2020/12/23 01:58:53;;;;;;;35.78;20.20;;;;;;;-3.67;67.09;102077.41;1660220;84;21110;-79
2020/12/23 02:01:22;;;;;;;37.78;20.72;;;;;;;-3.68;66.99;102072.27;1679053;82;21569;-82
2020/12/23 02:03:50;;;;;;;38.78;20.77;;;;;;;-3.68;67.04;102069.70;1651507;86;21113;-80
2020/12/23 02:06:18;;;;;;;29.63;18.37;;;;;;;-3.70;67.06;102074.78;1639789;85;21101;-80
2020/12/23 02:08:46;;;;;;;35.92;20.12;;;;;;;-3.68;67.01;102067.14;1648162;84;21408;-80
2020/12/23 02:11:15;;;;;;;33.85;18.70;;;;;;;-3.66;67.02;102068.04;1634048;85;22596;-79
2020/12/23 02:13:44;;;;;;;40.73;19.87;;;;;;;-3.66;66.96;102067.62;1620050;86;21007;-80
2020/12/23 02:16:14;;;;;;;47.48;19.60;;;;;;;-3.64;66.89;102062.11;1640592;86;21057;-78
2020/12/23 02:18:43;;;;;;;40.83;20.48;;;;;;;-3.65;66.84;102070.62;1666962;84;21131;-78
2020/12/23 02:21:14;;;;;;;41.28;22.22;;;;;;;-3.65;66.86;102071.04;1671316;82;21054;-79
2020/12/23 02:23:43;;;;;;;42.55;22.35;;;;;;;-3.63;66.95;102079.20;1647370;84;21006;-79
2020/12/23 02:26:13;;;;;;;40.43;20.30;;;;;;;-3.56;66.93;102067.39;1652138;84;21039;-79
2020/12/23 02:28:41;;;;;;;39.03;19.42;;;;;;;-3.49;66.29;102068.38;1656887;84;20944;-81
2020/12/23 02:31:10;;;;;;;35.45;19.45;;;;;;;-3.56;66.22;102059.70;1661098;84;21219;-77
2020/12/23 02:33:38;;;;;;;39.15;19.57;;;;;;;-3.58;66.21;102058.41;1657839;84;21018;-79
2020/12/23 02:36:06;;;;;;;36.23;19.55;;;;;;;-3.58;66.38;102054.56;1660925;84;21205;-80
2020/12/23 02:38:34;;;;;;;37.25;18.70;;;;;;;-3.56;66.24;102060.98;1644282;86;21077;-80
2020/12/23 02:41:03;;;;;;;41.90;20.17;;;;;;;-3.54;66.21;102056.75;1657772;85;21542;-79
2020/12/23 02:43:32;;;;;;;35.68;20.00;;;;;;;-3.55;66.18;102055.03;1664515;83;20974;-81
2020/12/23 02:46:01;;;;;;;35.92;19.02;;;;;;;-3.56;66.10;102046.87;1654446;83;21418;-81
2020/12/23 02:48:29;;;;;;;38.88;20.05;;;;;;;-3.58;66.07;102049.82;1633681;86;21155;-80
2020/12/23 02:50:57;;;;;;;37.88;19.42;;;;;;;-3.59;66.13;102047.68;1661880;84;21109;-80
2020/12/23 02:53:26;;;;;;;40.05;20.27;;;;;;;-3.59;66.04;102049.39;1685765;83;21125;-81
2020/12/23 02:55:54;;;;;;;38.83;19.82;;;;;;;-3.64;66.15;102051.00;1673800;84;21059;-81
2020/12/23 02:58:22;;;;;;;39.18;18.82;;;;;;;-3.64;66.10;102047.16;1671902;84;21024;-80
2020/12/23 03:00:50;;;;;;;33.10;18.92;;;;;;;-3.67;66.15;102047.92;1660012;84;21083;-80
2020/12/23 03:03:18;;;;;;;43.70;21.52;;;;;;;-3.70;66.14;102036.76;1668682;84;21031;-81
2020/12/23 03:05:46;;;;;;;38.48;20.68;;;;;;;-3.75;66.29;102036.66;1671596;84;21047;-80
2020/12/23 03:08:13;;;;;;;35.92;19.98;;;;;;;-3.75;66.45;102035.38;1657789;84;21128;-80
2020/12/23 03:10:41;;;;;;;37.00;19.30;;;;;;;-3.75;66.44;102032.81;1668543;84;20939;-80
2020/12/23 03:13:09;;;;;;;42.65;23.30;;;;;;;-3.71;66.67;102041.42;1671696;83;21077;-80
2020/12/23 03:15:37;;;;;;;46.48;23.73;;;;;;;-3.65;66.43;102040.28;1660180;83;21599;-81
2020/12/23 03:18:05;;;;;;;42.85;22.95;;;;;;;-3.64;66.31;102048.02;1656635;83;20978;-79
2020/12/23 03:20:33;;;;;;;42.90;20.15;;;;;;;-3.61;66.33;102047.20;1667294;84;20956;-82
2020/12/23 03:23:01;;;;;;;45.38;23.30;;;;;;;-3.61;66.28;102048.48;1662206;83;21523;-78
2020/12/23 03:25:35;;;;;;;34.45;18.80;;;;;;;-3.62;66.21;102045.48;1665265;84;21183;-78
2020/12/23 03:28:05;;;;;;;46.55;23.92;;;;;;;-3.65;66.26;102046.69;1687995;84;21595;-81
2020/12/23 03:30:34;;;;;;;40.65;19.95;;;;;;;-3.66;66.37;102046.25;1661306;84;21500;-81
2020/12/23 03:35:41;;;;;;;47.17;22.75;;;;;;;-3.60;66.42;102043.80;1852519;77;22738;-80
2020/12/23 03:38:10;;;;;;;38.23;20.88;;;;;;;-3.66;66.34;102035.58;1788613;78;20930;-80
2020/12/23 03:40:38;;;;;;;46.18;22.93;;;;;;;-3.65;66.43;102041.56;1745645;81;21013;-77
2020/12/23 03:43:07;;;;;;;40.40;23.57;;;;;;;-3.66;66.44;102041.98;1788410;78;20966;-77
2020/12/23 03:45:35;;;;;;;41.88;21.35;;;;;;;-3.67;66.41;102035.11;1788353;78;20999;-79
2020/12/23 03:48:05;;;;;;;37.78;19.62;;;;;;;-3.68;66.46;102029.55;1786826;78;21069;-81
2020/12/23 03:50:33;;;;;;;45.30;21.73;;;;;;;-3.67;66.59;102030.41;1815364;78;21037;-79
2020/12/23 03:53:02;;;;;;;42.13;23.25;;;;;;;-3.70;66.60;102037.62;1720153;82;21510;-79
2020/12/23 03:55:30;;;;;;;42.25;22.65;;;;;;;-3.67;66.63;102031.69;1788394;78;20938;-79
2020/12/23 03:57:58;;;;;;;46.60;23.60;;;;;;;-3.62;66.64;102033.53;1815185;78;20962;-81
2020/12/23 04:00:27;;;;;;;40.65;21.80;;;;;;;-3.55;66.67;102037.09;1720862;82;21042;-79
2020/12/23 04:02:55;;;;;;;39.58;21.73;;;;;;;-3.49;66.39;102036.33;1789007;78;21585;-80
2020/12/23 04:05:25;;;;;;;43.98;23.20;;;;;;;-3.49;66.32;102042.74;1718307;82;21758;-83
2020/12/23 04:07:54;;;;;;;43.13;21.77;;;;;;;-3.51;66.26;102040.17;1788448;78;21053;-80
2020/12/23 04:10:29;;;;;;;42.40;21.68;;;;;;;-3.52;66.47;102040.98;1787769;78;20938;-81
2020/12/23 04:13:03;;;;;;;38.60;21.23;;;;;;;-3.51;66.33;102038.00;1747005;81;21129;-81
2020/12/23 04:15:32;;;;;;;36.80;22.35;;;;;;;-3.51;66.30;102042.73;1788474;78;20986;-81
2020/12/23 04:18:00;;;;;;;39.30;22.62;;;;;;;-3.55;66.33;102039.65;1787203;78;20988;-80
2020/12/23 04:20:28;;;;;;;46.45;22.67;;;;;;;-3.54;66.43;102037.09;1721153;82;21121;-81
2020/12/23 04:22:56;;;;;;;44.60;21.52;;;;;;;-3.50;66.45;102043.59;1788609;78;21018;-81
2020/12/23 04:25:24;;;;;;;41.13;20.82;;;;;;;-3.50;66.38;102047.02;1787041;78;21451;-80
2020/12/23 04:27:52;;;;;;;37.78;19.90;;;;;;;-3.54;66.36;102038.38;1786826;78;20978;-82
2020/12/23 04:30:20;;;;;;;41.85;22.90;;;;;;;-3.53;66.41;102043.12;1719817;82;21184;-81
2020/12/23 04:32:48;;;;;;;36.63;22.35;;;;;;;-3.58;66.37;102042.12;1788728;78;21518;-80
2020/12/23 04:35:17;;;;;;;38.60;22.13;;;;;;;-3.59;66.51;102041.70;1707800;82;21013;-81
2020/12/23 04:37:45;;;;;;;35.55;21.68;;;;;;;-3.58;66.63;102042.12;1722221;82;20955;-82
2020/12/23 04:40:13;;;;;;;42.45;20.72;;;;;;;-3.52;66.71;102046.11;1722458;82;21119;-81
2020/12/23 04:42:45;;;;;;;47.95;20.27;;;;;;;-3.48;66.43;102050.48;1722788;82;21410;-81
2020/12/23 04:45:13;;;;;;;48.30;23.80;;;;;;;-3.48;66.42;102041.93;1718245;82;21117;-81
2020/12/23 04:47:42;;;;;;;37.83;22.02;;;;;;;-3.48;66.38;102036.38;1717715;82;20994;-82
2020/12/23 04:50:10;;;;;;;41.70;23.22;;;;;;;-3.48;66.47;102031.67;1722958;82;20979;-81
2020/12/23 04:52:39;;;;;;;45.33;22.45;;;;;;;-3.50;66.50;102032.05;1722076;82;20972;-82
2020/12/23 04:55:07;;;;;;;45.75;22.27;;;;;;;-3.48;66.44;102031.25;1721681;82;21452;-81
2020/12/23 04:57:35;;;;;;;44.50;22.60;;;;;;;-3.49;66.49;102027.36;1722139;81;21647;-81
2020/12/23 05:00:10;;;;;;;38.88;21.48;;;;;;;-3.50;66.52;102025.64;1722272;82;21062;-81
2020/12/23 05:02:39;;;;;;;43.50;20.82;;;;;;;-3.48;66.42;102021.41;1721692;82;20956;-80
2020/12/23 05:05:10;;;;;;;39.25;20.32;;;;;;;-3.52;66.53;102026.88;1721032;82;21520;-83
2020/12/23 05:07:38;;;;;;;40.70;20.52;;;;;;;-3.50;66.57;102026.50;1721835;82;21484;-83
2020/12/23 05:10:07;;;;;;;39.98;20.80;;;;;;;-3.50;66.55;102025.22;1722084;82;21494;-81
2020/12/23 05:12:39;;;;;;;35.25;20.23;;;;;;;-3.54;66.69;102025.98;1722797;82;21027;-82
2020/12/23 05:15:13;;;;;;;35.98;19.35;;;;;;;-3.50;66.70;102033.34;1664639;82;21047;-82
2020/12/23 05:17:45;;;;;;;38.65;18.77;;;;;;;-3.52;66.72;102038.42;1718881;82;20970;-81
2020/12/23 05:20:14;;;;;;;40.55;19.82;;;;;;;-3.54;66.70;102037.52;1724241;82;21101;-79
2020/12/23 05:22:48;;;;;;;37.88;19.77;;;;;;;-3.59;66.81;102037.43;1748682;82;21383;-80
2020/12/23 05:25:21;;;;;;;39.53;21.55;;;;;;;-3.57;66.93;102037.05;1722571;82;20992;-83
2020/12/23 05:27:54;;;;;;;48.50;20.68;;;;;;;-3.55;66.94;102038.37;1722511;82;20951;-84
2020/12/23 05:30:25;;;;;;;39.80;20.72;;;;;;;-3.55;66.98;102031.53;1723500;82;26335;-88
2020/12/23 05:32:58;;;;;;;32.55;18.92;;;;;;;-3.56;67.12;102027.65;1749043;82;20967;-85
2020/12/23 05:35:28;;;;;;;40.05;20.80;;;;;;;-3.56;67.11;102028.54;1715924;82;21008;-85
2020/12/23 05:38:05;;;;;;;35.98;19.35;;;;;;;-3.56;67.20;102032.78;1750641;81;21046;-85
2020/12/23 05:40:39;;;;;;;36.75;21.93;;;;;;;-3.56;67.21;102029.82;1820811;78;21106;-84
2020/12/23 05:43:17;;;;;;;37.95;21.55;;;;;;;-3.56;67.28;102023.80;1740410;82;20975;-86
2020/12/23 05:46:10;;;;;;;38.10;19.42;;;;;;;-3.57;67.39;102020.80;1751513;80;22778;-86
2020/12/23 05:48:44;;;;;;;34.45;19.48;;;;;;;-3.56;67.59;102022.52;1749574;81;20963;-84
2020/12/23 05:51:13;;;;;;;35.50;20.27;;;;;;;-3.57;67.57;102025.51;1774805;80;21464;-81
2020/12/23 05:53:54;;;;;;;38.28;19.95;;;;;;;-3.58;67.68;102030.20;1687847;80;20994;31
2020/12/23 05:56:23;;;;;;;43.10;21.90;;;;;;;-3.57;67.67;102031.06;1710934;83;21268;-83
2020/12/23 05:58:51;;;;;;;43.50;21.90;;;;;;;-3.78;67.75;101995.18;1733575;82;21081;-86
2020/12/23 06:01:22;;;;;;;33.95;19.92;;;;;;;-3.57;67.85;102025.93;1686369;83;21010;-86
2020/12/23 06:04:15;;;;;;;49.83;22.40;;;;;;;-3.55;67.99;102032.81;1716913;83;20991;-84
2020/12/23 06:06:47;;;;;;;43.90;23.12;;;;;;;-3.51;68.08;102035.05;1687455;83;20972;-84
2020/12/23 06:09:22;;;;;;;41.65;23.10;;;;;;;-3.47;68.15;102033.39;1692388;83;20958;-83
2020/12/23 06:11:58;;;;;;;41.48;22.32;;;;;;;-3.37;68.25;102034.03;1742343;82;21653;-85
2020/12/23 06:14:31;;;;;;;42.43;20.92;;;;;;;-3.28;68.10;102027.80;1713251;83;20969;-85
2020/12/23 06:17:05;;;;;;;42.35;22.22;;;;;;;-3.19;67.75;102034.39;1667579;85;20994;-85
2020/12/23 06:19:37;;;;;;;38.98;22.20;;;;;;;-3.18;67.62;102037.81;1698112;83;21045;-84
2020/12/23 06:22:09;;;;;;;36.40;20.50;;;;;;;-3.20;67.82;102037.80;1709913;83;20926;-86
2020/12/23 06:24:42;;;;;;;38.78;20.85;;;;;;;-3.14;67.67;102039.61;1666805;85;22089;-85
2020/12/23 06:27:12;;;;;;;40.52;22.95;;;;;;;-3.17;67.52;102039.56;1738379;82;20970;-87
2020/12/23 06:29:51;;;;;;;45.05;23.62;;;;;;;-3.19;67.58;102036.09;1687321;84;21032;-84
2020/12/23 06:32:25;;;;;;;38.88;21.95;;;;;;;-3.20;67.67;102036.91;1695646;83;21010;-86
2020/12/23 06:35:02;;;;;;;42.38;23.52;;;;;;;-3.21;67.71;102040.33;1737787;82;21012;-87
2020/12/23 06:37:34;;;;;;;51.10;24.98;;;;;;;-3.22;67.76;102033.48;1717581;82;20948;-85
2020/12/23 06:47:35;;;;;;;38.35;21.50;;;;;;;-3.18;67.82;102033.96;1495128;91;21201;-86
2020/12/23 06:50:30;;;;;;;45.28;23.57;;;;;;;-3.06;68.25;102034.64;1840659;77;22002;-85
2020/12/23 06:53:03;;;;;;;44.58;24.45;;;;;;;-3.06;67.83;102033.36;1790151;78;20940;-86
2020/12/23 06:56:06;;;;;;;48.42;24.67;;;;;;;-3.02;67.78;102033.44;1790088;78;20938;-85
2020/12/23 06:59:04;;;;;;;42.35;22.82;;;;;;;-2.95;67.68;102036.98;1821993;78;21049;-85
2020/12/23 07:01:36;;;;;;;42.25;23.02;;;;;;;-2.81;67.27;102039.38;1821894;78;21073;-84
2020/12/23 07:04:11;;;;;;;40.17;21.70;;;;;;;-2.73;67.06;102040.38;1790422;78;20955;-84
2020/12/23 07:06:42;;;;;;;36.15;21.55;;;;;;;-2.74;66.96;102041.62;1790370;78;20930;-82
2020/12/23 07:09:21;;;;;;;37.60;21.42;;;;;;;-2.77;66.59;102041.16;1789764;78;21817;-84
2020/12/23 07:12:16;;;;;;;39.25;23.07;;;;;;;-2.83;66.80;102035.91;1797026;78;20962;-85
2020/12/23 07:15:05;;;;;;;45.48;25.43;;;;;;;-2.86;67.05;102040.14;1791316;78;21081;-85
2020/12/23 07:18:10;;;;;;;46.68;24.07;;;;;;;-2.84;67.24;102034.20;1818030;78;21050;-85
2020/12/23 07:21:05;;;;;;;44.63;24.70;;;;;;;-2.76;66.98;102037.77;1821652;78;21064;-82
2020/12/23 07:23:36;;;;;;;46.83;24.80;;;;;;;-2.75;66.97;102038.62;1790514;78;21145;-83
2020/12/23 07:26:12;;;;;;;47.05;25.75;;;;;;;-2.73;67.13;102031.82;1790212;78;20955;-85
2020/12/23 07:28:43;;;;;;;38.73;23.25;;;;;;;-2.63;67.17;102029.84;1790324;78;20915;-83
2020/12/23 07:31:19;;;;;;;53.50;26.52;;;;;;;-2.57;66.95;102032.95;1790651;78;20899;-85
2020/12/23 07:34:12;;;;;;;52.13;26.40;;;;;;;-2.52;66.91;102039.87;1821857;78;21061;-85
2020/12/23 07:36:48;;;;;;;64.85;28.80;;;;;;;-2.44;66.79;102041.30;1790180;78;21245;-86
2020/12/23 07:39:22;;;;;;;53.98;31.30;;;;;;;-2.34;66.50;102034.59;1790501;78;20946;-86
2020/12/23 07:41:55;;;;;;;51.40;28.02;;;;;;;-2.29;66.12;102031.67;1790137;78;20966;-86
2020/12/23 07:44:28;;;;;;;47.35;23.27;;;;;;;-2.28;65.87;102036.41;1790740;78;21013;-84
2020/12/23 07:47:05;;;;;;;43.20;24.30;;;;;;;-2.30;65.86;102044.09;1790455;78;20919;-83
2020/12/23 07:49:36;;;;;;;39.75;21.68;;;;;;;-2.32;65.87;102037.63;1825674;78;21013;-85
2020/12/23 07:52:22;;;;;;;43.35;21.65;;;;;;;-2.29;65.96;102034.23;1790795;80;20966;-87
2020/12/23 07:55:23;;;;;;;53.65;24.00;;;;;;;-2.30;65.96;102046.66;1796582;80;21087;-85
2020/12/23 07:57:55;;;;;;;47.27;26.55;;;;;;;-2.32;65.96;102033.78;1768289;80;21021;-84
2020/12/23 08:00:53;;;;;;;51.83;27.65;;;;;;;-2.32;65.79;102031.64;1774756;80;20946;-82
2020/12/23 08:03:30;;;;;;;39.70;20.95;;;;;;;-2.28;65.79;102029.99;1796091;80;21505;-84
2020/12/23 08:06:31;;;;;;;41.33;22.10;;;;;;;-2.23;65.36;102020.21;1796029;79;20989;-86
2020/12/23 08:15:23;;;;;;;41.08;22.62;;;;;;;-2.23;65.52;102024.06;1677110;83;20979;-84
2020/12/23 08:18:46;;;;;;;50.60;24.40;;;;;;;-2.19;65.54;102015.57;1689828;84;21440;-83
2020/12/23 08:28:45;;;;;;;38.08;21.52;;;;;;;-2.14;65.51;102006.64;1601363;86;21023;-88
2020/12/23 08:31:41;;;;;;;38.70;22.17;;;;;;;-2.01;65.39;101997.41;1878514;75;22647;-86
2020/12/23 08:34:19;;;;;;;38.95;21.00;;;;;;;-1.97;65.14;101992.77;1792503;78;20939;-88
2020/12/23 08:36:52;;;;;;;41.00;23.20;;;;;;;-1.97;64.75;101987.62;1823797;78;21185;-88
2020/12/23 08:39:29;;;;;;;39.20;21.37;;;;;;;-2.03;64.70;101988.81;1760276;80;21014;-86
2020/12/23 08:42:08;;;;;;;40.73;21.82;;;;;;;-2.14;64.80;101984.80;1780343;80;21069;-87
2020/12/23 08:44:48;;;;;;;38.92;21.80;;;;;;;-2.21;65.25;101984.27;1760575;79;20990;-85
2020/12/23 08:47:32;;;;;;;38.35;23.45;;;;;;;-2.19;65.45;101978.73;1760719;80;21037;-82
2020/12/23 08:50:09;;;;;;;34.90;18.75;;;;;;;-2.12;65.55;101978.84;1758808;80;21171;-79
2020/12/23 08:52:38;;;;;;;36.98;20.60;;;;;;;-2.09;65.06;101980.19;1719928;80;21447;-81
2020/12/23 08:55:26;;;;;;;48.92;24.95;;;;;;;-2.11;65.02;101972.87;1709118;80;20915;-80
2020/12/23 09:00:24;;;;;;;40.52;23.38;;;;;;;-2.03;65.20;101970.82;1820411;77;22658;-82
2020/12/23 09:02:58;;;;;;;43.90;25.23;;;;;;;-1.99;65.10;101972.59;1702596;81;21467;-80
2020/12/23 09:05:41;;;;;;;43.90;28.95;;;;;;;-1.88;65.30;101971.89;1798448;77;27799;-80
2020/12/23 09:08:19;;;;;;;43.60;23.67;;;;;;;-1.83;64.97;101970.66;1751201;80;21085;-79
2020/12/23 09:10:55;;;;;;;43.40;23.38;;;;;;;-1.72;64.60;101963.94;1693686;80;22111;-80
2020/12/23 09:13:33;;;;;;;;;;;;;;;-1.68;64.42;101962.28;1758232;80;21045;-80
2020/12/23 09:16:00;;;;;;;39.73;21.85;;;;;;;-1.59;64.37;101962.39;1755289;80;20514;-81
2020/12/23 09:18:29;;;;;;;39.90;22.62;;;;;;;-1.53;64.40;101961.61;1755636;80;20954;-79
2020/12/23 09:21:03;;;;;;;42.08;23.25;;;;;;;-1.49;64.19;101960.38;1755147;80;21013;-80
2020/12/23 09:23:31;;;;;;;45.48;24.20;;;;;;;-1.44;64.14;101955.28;1755848;80;26233;-81
2020/12/23 09:26:02;;;;;;;41.77;23.70;;;;;;;-1.43;63.83;101949.27;1755911;80;20954;-81
2020/12/23 09:28:33;;;;;;;37.85;22.73;;;;;;;-1.43;63.87;101945.41;1756024;79;20938;-83
2020/12/23 09:31:02;;;;;;;41.65;24.02;;;;;;;-1.39;63.98;101954.04;1756075;80;21069;-76
2020/12/23 09:33:41;;;;;;;48.08;24.67;;;;;;;-1.30;63.91;101942.13;1759282;80;21025;-80
2020/12/23 09:36:13;;;;;;;39.83;23.15;;;;;;;-1.18;63.64;101940.09;1759016;79;21875;-81
2020/12/23 09:38:43;;;;;;;35.30;20.23;;;;;;;-1.08;63.42;101942.34;1756920;80;21072;-80
2020/12/23 09:41:16;;;;;;;40.70;25.60;;;;;;;-1.04;63.30;101938.95;1757767;80;21053;-82
2020/12/23 09:43:46;;;;;;;40.28;23.30;;;;;;;-1.01;62.90;101940.26;1755806;80;21021;-80
2020/12/23 09:46:14;;;;;;;40.78;23.20;;;;;;;-1.00;62.72;101945.86;1755840;80;21574;-82
2020/12/23 09:48:46;;;;;;;29.95;18.80;;;;;;;-0.93;62.63;101942.48;1755433;80;20993;-78
2020/12/23 09:51:17;;;;;;;36.13;21.12;;;;;;;-0.86;62.52;101941.68;1755581;80;20915;-80
2020/12/23 09:53:46;;;;;;;29.77;18.37;;;;;;;-0.80;62.41;101938.31;1783043;80;20903;-83
2020/12/23 09:56:18;;;;;;;32.60;20.57;;;;;;;-0.75;62.22;101934.48;1756048;80;21132;-81
2020/12/23 09:58:47;;;;;;;32.75;18.40;;;;;;;-0.78;62.17;101934.44;1755734;80;20950;-85
2020/12/23 10:01:18;;;;;;;32.10;18.90;;;;;;;-0.76;62.20;101930.16;1755943;80;22712;-85
2020/12/23 10:03:49;;;;;;;40.78;24.15;;;;;;;-0.74;62.29;101933.62;1754821;80;21026;-84
2020/12/23 10:06:22;;;;;;;37.75;20.82;;;;;;;-0.73;62.04;101927.63;1753175;80;20946;-82
2020/12/23 10:08:50;;;;;;;34.25;21.35;;;;;;;-0.69;62.14;101930.64;1753155;80;20954;-84
2020/12/23 10:11:22;;;;;;;27.07;17.37;;;;;;;-0.69;62.14;101926.38;1753288;80;21083;-84
2020/12/23 10:13:50;;;;;;;33.25;17.10;;;;;;;-0.64;62.16;101923.83;1753098;80;21163;-83
2020/12/23 10:16:18;;;;;;;34.25;18.70;;;;;;;-0.61;62.10;101915.26;1753043;80;21407;-83
2020/12/23 10:18:48;;;;;;;37.33;20.05;;;;;;;-0.61;62.27;101907.09;1752571;80;20918;-80
2020/12/23 10:21:17;;;;;;;33.90;21.05;;;;;;;-0.60;62.41;101904.09;1754307;80;21018;-83
2020/12/23 10:23:52;;;;;;;33.53;18.35;;;;;;;-0.61;62.50;101907.09;1755743;80;20950;-81
2020/12/23 10:26:25;;;;;;;33.60;20.10;;;;;;;-0.58;62.83;101903.67;1754864;80;21085;-84
2020/12/23 10:28:54;;;;;;;29.85;16.95;;;;;;;-0.53;62.80;101900.30;1753724;80;21050;-82
2020/12/23 10:31:22;;;;;;;31.82;18.50;;;;;;;-0.51;62.29;101897.30;1753303;80;21041;-83
2020/12/23 10:33:49;;;;;;;31.62;18.77;;;;;;;-0.51;62.44;101904.14;1752805;79;21077;-84
2020/12/23 10:36:20;;;;;;;31.95;19.52;;;;;;;-0.49;62.42;101895.60;1753408;80;20955;-84
2020/12/23 10:38:53;;;;;;;33.80;20.77;;;;;;;-0.50;62.38;101896.44;1752785;80;22416;-85
2020/12/23 10:41:25;;;;;;;35.95;20.45;;;;;;;-0.50;62.49;101894.30;1752699;80;20986;-83
2020/12/23 10:47:02;;;;;;;33.23;19.25;;;;;;;-0.61;62.71;101890.36;1732409;81;20987;-80
2020/12/23 10:49:34;;;;;;;28.55;17.00;;;;;;;-0.63;62.79;101876.60;1765065;81;21415;-81
2020/12/23 10:52:23;;;;;;;30.43;17.07;;;;;;;-0.63;62.86;101873.59;1846882;77;22676;-83
2020/12/23 10:55:12;;;;;;;26.62;16.55;;;;;;;-0.68;62.73;101871.85;1824147;78;21001;-80
2020/12/23 10:57:51;;;;;;;26.95;17.07;;;;;;;-0.71;63.01;101875.67;1794787;78;21772;-82
2020/12/23 11:00:51;;;;;;;36.30;18.82;;;;;;;-0.72;63.07;101873.53;1795238;78;21043;-84
2020/12/23 11:03:26;;;;;;;26.00;14.93;;;;;;;-0.69;63.13;101869.71;1795772;78;20956;-80
2020/12/23 11:05:56;;;;;;;26.77;16.73;;;;;;;-0.70;63.01;101878.27;1794106;78;21043;-82
2020/12/23 11:08:26;;;;;;;25.77;17.57;;;;;;;-0.70;62.94;101871.83;1794794;78;21105;-83
2020/12/23 11:10:57;;;;;;;32.73;18.15;;;;;;;-0.71;62.93;101870.52;1824418;78;21074;-83
2020/12/23 11:13:29;;;;;;;32.80;18.57;;;;;;;-0.74;63.17;101868.80;1794449;78;21027;-81
2020/12/23 11:16:05;;;;;;;40.88;21.77;;;;;;;-0.72;63.22;101863.66;1824724;78;20957;-80
2020/12/23 11:18:33;;;;;;;27.60;17.33;;;;;;;-0.72;63.38;101863.23;1795387;78;20952;-83
2020/12/23 11:21:04;;;;;;;24.92;18.87;;;;;;;-0.68;63.29;101864.98;1794425;78;20944;-81
2020/12/23 11:23:37;;;;;;;25.20;17.35;;;;;;;-0.70;63.22;101869.69;1794120;77;21967;-81
2020/12/23 11:26:22;;;;;;;25.15;15.25;;;;;;;-0.73;63.08;101865.39;1669419;84;21067;-82
2020/12/23 11:28:52;;;;;;;24.65;16.23;;;;;;;-0.83;63.04;101872.59;1675108;83;21057;-80
2020/12/23 11:31:25;;;;;;;25.82;14.63;;;;;;;-1.01;63.40;101872.47;1700471;83;20985;-80
2020/12/23 11:34:01;;;;;;;26.05;16.25;;;;;;;-1.09;63.74;101873.67;1698157;83;21375;-83
2020/12/23 11:36:33;;;;;;;24.32;15.25;;;;;;;-1.20;63.98;101871.03;1700274;83;21459;-82
2020/12/23 11:39:06;;;;;;;25.68;15.23;;;;;;;-1.26;64.30;101867.97;1697841;83;21085;-82
2020/12/23 11:41:40;;;;;;;34.50;20.40;;;;;;;-1.25;64.53;101863.67;1700647;83;21264;-83
2020/12/23 11:44:12;;;;;;;33.70;21.40;;;;;;;-1.18;64.64;101862.88;1698346;83;21069;-81
2020/12/23 11:47:09;;;;;;;32.55;18.20;;;;;;;-1.14;64.74;101862.05;1668632;84;21700;-82
2020/12/23 11:49:42;;;;;;;29.50;18.02;;;;;;;-1.12;64.71;101862.94;1698111;83;21475;-83
2020/12/23 11:52:22;;;;;;;29.70;18.35;;;;;;;-1.13;64.68;101870.67;1697891;83;20985;-80
2020/12/23 11:54:51;;;;;;;33.58;20.23;;;;;;;-1.16;64.71;101869.33;1700480;83;21068;-79
2020/12/23 11:57:22;;;;;;;33.98;19.67;;;;;;;-1.20;64.73;101867.58;1674536;84;21053;-80
2020/12/23 11:59:56;;;;;;;31.48;17.52;;;;;;;-1.20;64.89;101863.31;1698111;83;20973;-80
2020/12/23 12:02:25;;;;;;;32.40;18.75;;;;;;;-1.19;64.88;101864.17;1673881;84;20986;-78
2020/12/23 12:04:54;;;;;;;34.92;20.32;;;;;;;-1.14;64.73;101863.78;1699718;83;20966;-78
2020/12/23 12:07:25;;;;;;;30.95;18.65;;;;;;;-1.11;64.83;101858.64;1697199;83;21164;-78
2020/12/23 12:09:59;;;;;;;34.18;19.55;;;;;;;-1.06;64.70;101849.27;1699765;83;20954;-79
2020/12/23 12:12:29;;;;;;;41.58;22.70;;;;;;;-1.11;64.92;101849.23;1697480;83;21057;-79
2020/12/23 12:15:02;;;;;;;41.45;21.17;;;;;;;-1.13;65.05;101853.94;1667187;84;21065;-78
2020/12/23 12:17:38;;;;;;;35.13;21.60;;;;;;;-1.17;65.18;101858.61;1697388;83;20994;-79
2020/12/23 12:20:11;;;;;;;52.33;27.62;;;;;;;-1.19;65.43;101853.87;1673346;84;21014;-78
2020/12/23 12:22:39;;;;;;;40.38;22.67;;;;;;;-1.19;65.51;101851.30;1697068;83;21127;-79
2020/12/23 12:25:16;;;;;;;35.98;19.80;;;;;;;-1.24;65.38;101846.12;1674364;83;21018;-80
2020/12/23 12:27:48;;;;;;;31.33;17.42;;;;;;;-1.25;65.44;101853.38;1701640;83;21707;-78
2020/12/23 12:30:16;;;;;;;33.73;19.48;;;;;;;-1.29;65.43;101852.52;1678981;84;20953;-80
2020/12/23 12:32:46;;;;;;;26.93;16.12;;;;;;;-1.33;65.42;101855.05;1701916;83;20974;-76
2020/12/23 12:35:18;;;;;;;36.50;18.92;;;;;;;-1.36;65.43;101851.14;1702122;83;21395;-77
2020/12/23 12:37:48;;;;;;;34.43;19.20;;;;;;;-1.42;65.47;101854.54;1702279;83;20930;-79
2020/12/23 12:40:17;;;;;;;43.50;22.10;;;;;;;-1.36;65.40;101856.29;1702078;83;22324;-80
2020/12/23 12:42:45;;;;;;;52.05;22.90;;;;;;;-1.32;65.37;101852.90;1704838;83;20997;-78
2020/12/23 12:45:14;;;;;;;45.35;23.92;;;;;;;-1.29;65.33;101855.48;1702785;83;20974;-79
2020/12/23 12:47:45;;;;;;;52.33;23.55;;;;;;;-1.24;65.17;101852.55;1678566;84;21522;-78
2020/12/23 12:50:14;;;;;;;45.67;23.77;;;;;;;-1.23;65.17;101861.98;1701697;83;20980;-78